sensor_id;sensor_type;location;lat;lon;timestamp;P1;durP1;ratioP1;P2;durP2;ratioP2
57778;SDS011;43608;49.486;9.640;2023-11-19T00:00:17;3.80;;;2.70;;
57778;SDS011;43608;49.486;9.640;2023-11-19T00:00:47;3.40;;;2.65;;
57778;SDS011;43608;49.486;9.640;2023-11-19T00:01:21;3.65;;;2.47;;
57778;SDS011;43608;49.486;9.640;2023-11-19T00:01:51;4.28;;;2.60;;
57778;SDS011;43608;49.486;9.640;2023-11-19T00:02:22;3.67;;;2.60;;
57778;SDS011;43608;49.486;9.640;2023-11-19T00:02:52;3.40;;;2.45;;
57778;SDS011;43608;49.486;9.640;2023-11-19T00:03:23;4.25;;;2.72;;
57778;SDS011;43608;49.486;9.640;2023-11-19T00:03:53;3.83;;;2.60;;
57778;SDS011;43608;49.486;9.640;2023-11-19T00:04:24;3.75;;;2.58;;
57778;SDS011;43608;49.486;9.640;2023-11-19T00:04:54;3.00;;;2.40;;
57778;SDS011;43608;49.486;9.640;2023-11-19T00:05:24;3.05;;;2.35;;
57778;SDS011;43608;49.486;9.640;2023-11-19T00:05:55;3.10;;;2.38;;
57778;SDS011;43608;49.486;9.640;2023-11-19T00:06:25;4.53;;;2.60;;
57778;SDS011;43608;49.486;9.640;2023-11-19T00:06:56;3.95;;;2.70;;
57778;SDS011;43608;49.486;9.640;2023-11-19T00:07:32;3.50;;;2.53;;
57778;SDS011;43608;49.486;9.640;2023-11-19T00:08:02;3.60;;;2.33;;
57778;SDS011;43608;49.486;9.640;2023-11-19T00:08:33;4.18;;;2.55;;
57778;SDS011;43608;49.486;9.640;2023-11-19T00:09:03;3.80;;;2.70;;
57778;SDS011;43608;49.486;9.640;2023-11-19T00:09:34;3.75;;;2.70;;
57778;SDS011;43608;49.486;9.640;2023-11-19T00:10:07;4.05;;;2.72;;
57778;SDS011;43608;49.486;9.640;2023-11-19T00:10:42;4.13;;;2.97;;
57778;SDS011;43608;49.486;9.640;2023-11-19T00:11:12;4.43;;;2.75;;
57778;SDS011;43608;49.486;9.640;2023-11-19T00:11:45;4.22;;;2.70;;
57778;SDS011;43608;49.486;9.640;2023-11-19T00:12:15;4.22;;;2.95;;
57778;SDS011;43608;49.486;9.640;2023-11-19T00:12:47;3.40;;;2.53;;
57778;SDS011;43608;49.486;9.640;2023-11-19T00:13:18;3.97;;;2.83;;
57778;SDS011;43608;49.486;9.640;2023-11-19T00:13:49;3.75;;;2.50;;
57778;SDS011;43608;49.486;9.640;2023-11-19T00:14:19;4.07;;;3.03;;
57778;SDS011;43608;49.486;9.640;2023-11-19T00:14:49;3.10;;;2.60;;
57778;SDS011;43608;49.486;9.640;2023-11-19T00:15:20;3.50;;;2.58;;
57778;SDS011;43608;49.486;9.640;2023-11-19T00:15:50;3.70;;;2.80;;
57778;SDS011;43608;49.486;9.640;2023-11-19T00:16:21;3.45;;;2.65;;
57778;SDS011;43608;49.486;9.640;2023-11-19T00:16:51;3.97;;;2.72;;
57778;SDS011;43608;49.486;9.640;2023-11-19T00:17:23;4.93;;;2.72;;
57778;SDS011;43608;49.486;9.640;2023-11-19T00:17:54;5.25;;;3.20;;
57778;SDS011;43608;49.486;9.640;2023-11-19T00:18:24;5.78;;;3.03;;
57778;SDS011;43608;49.486;9.640;2023-11-19T00:18:55;4.68;;;3.03;;
57778;SDS011;43608;49.486;9.640;2023-11-19T00:19:25;5.47;;;3.10;;
57778;SDS011;43608;49.486;9.640;2023-11-19T00:19:56;5.53;;;3.00;;
57778;SDS011;43608;49.486;9.640;2023-11-19T00:20:26;5.28;;;2.65;;
57778;SDS011;43608;49.486;9.640;2023-11-19T00:20:57;4.70;;;3.03;;
57778;SDS011;43608;49.486;9.640;2023-11-19T00:21:27;4.68;;;2.90;;
57778;SDS011;43608;49.486;9.640;2023-11-19T00:21:58;4.50;;;3.17;;
57778;SDS011;43608;49.486;9.640;2023-11-19T00:22:32;3.92;;;3.00;;
57778;SDS011;43608;49.486;9.640;2023-11-19T00:23:03;4.50;;;2.92;;
57778;SDS011;43608;49.486;9.640;2023-11-19T00:23:33;4.22;;;2.90;;
57778;SDS011;43608;49.486;9.640;2023-11-19T00:24:04;4.25;;;2.75;;
57778;SDS011;43608;49.486;9.640;2023-11-19T00:24:37;4.30;;;2.85;;
57778;SDS011;43608;49.486;9.640;2023-11-19T00:25:08;3.53;;;2.63;;
57778;SDS011;43608;49.486;9.640;2023-11-19T00:25:39;4.53;;;2.75;;
57778;SDS011;43608;49.486;9.640;2023-11-19T00:26:09;3.90;;;2.70;;
57778;SDS011;43608;49.486;9.640;2023-11-19T00:26:40;4.32;;;2.60;;
57778;SDS011;43608;49.486;9.640;2023-11-19T00:27:10;3.50;;;2.40;;
57778;SDS011;43608;49.486;9.640;2023-11-19T00:27:41;4.95;;;2.80;;
57778;SDS011;43608;49.486;9.640;2023-11-19T00:28:14;4.30;;;2.70;;
57778;SDS011;43608;49.486;9.640;2023-11-19T00:28:45;3.92;;;2.58;;
57778;SDS011;43608;49.486;9.640;2023-11-19T00:29:15;4.25;;;2.60;;
57778;SDS011;43608;49.486;9.640;2023-11-19T00:29:45;3.78;;;2.40;;
57778;SDS011;43608;49.486;9.640;2023-11-19T00:30:16;3.28;;;2.33;;
57778;SDS011;43608;49.486;9.640;2023-11-19T00:30:46;3.63;;;2.42;;
57778;SDS011;43608;49.486;9.640;2023-11-19T00:31:17;3.45;;;2.25;;
57778;SDS011;43608;49.486;9.640;2023-11-19T00:31:48;3.85;;;2.38;;
57778;SDS011;43608;49.486;9.640;2023-11-19T00:32:18;3.00;;;2.22;;
57778;SDS011;43608;49.486;9.640;2023-11-19T00:32:48;2.88;;;2.20;;
57778;SDS011;43608;49.486;9.640;2023-11-19T00:33:19;3.08;;;2.20;;
57778;SDS011;43608;49.486;9.640;2023-11-19T00:33:49;2.65;;;2.17;;
57778;SDS011;43608;49.486;9.640;2023-11-19T00:34:19;2.20;;;2.00;;
57778;SDS011;43608;49.486;9.640;2023-11-19T00:34:52;2.45;;;1.90;;
57778;SDS011;43608;49.486;9.640;2023-11-19T00:35:22;2.90;;;2.05;;
57778;SDS011;43608;49.486;9.640;2023-11-19T00:35:53;3.13;;;2.03;;
57778;SDS011;43608;49.486;9.640;2023-11-19T00:36:23;2.22;;;2.00;;
57778;SDS011;43608;49.486;9.640;2023-11-19T00:36:54;2.28;;;1.80;;
57778;SDS011;43608;49.486;9.640;2023-11-19T00:37:25;2.92;;;2.00;;
57778;SDS011;43608;49.486;9.640;2023-11-19T00:37:55;2.25;;;1.88;;
57778;SDS011;43608;49.486;9.640;2023-11-19T00:38:25;2.00;;;1.80;;
57778;SDS011;43608;49.486;9.640;2023-11-19T00:38:56;2.45;;;1.92;;
57778;SDS011;43608;49.486;9.640;2023-11-19T00:39:26;2.85;;;2.10;;
57778;SDS011;43608;49.486;9.640;2023-11-19T00:39:57;2.55;;;2.00;;
57778;SDS011;43608;49.486;9.640;2023-11-19T00:40:28;3.50;;;2.00;;
57778;SDS011;43608;49.486;9.640;2023-11-19T00:40:58;2.90;;;2.10;;
57778;SDS011;43608;49.486;9.640;2023-11-19T00:41:29;2.00;;;1.80;;
57778;SDS011;43608;49.486;9.640;2023-11-19T00:41:59;2.90;;;2.03;;
57778;SDS011;43608;49.486;9.640;2023-11-19T00:42:29;2.65;;;2.00;;
57778;SDS011;43608;49.486;9.640;2023-11-19T00:43:00;2.60;;;2.10;;
57778;SDS011;43608;49.486;9.640;2023-11-19T00:43:30;2.13;;;1.90;;
57778;SDS011;43608;49.486;9.640;2023-11-19T00:44:00;2.10;;;1.88;;
57778;SDS011;43608;49.486;9.640;2023-11-19T00:44:31;2.47;;;2.05;;
57778;SDS011;43608;49.486;9.640;2023-11-19T00:45:01;2.10;;;1.80;;
57778;SDS011;43608;49.486;9.640;2023-11-19T00:45:32;1.80;;;1.70;;
57778;SDS011;43608;49.486;9.640;2023-11-19T00:46:02;2.00;;;1.77;;
57778;SDS011;43608;49.486;9.640;2023-11-19T00:46:33;2.15;;;1.90;;
57778;SDS011;43608;49.486;9.640;2023-11-19T00:47:03;1.80;;;1.70;;
57778;SDS011;43608;49.486;9.640;2023-11-19T00:47:35;2.17;;;1.80;;
57778;SDS011;43608;49.486;9.640;2023-11-19T00:48:05;2.00;;;1.80;;
57778;SDS011;43608;49.486;9.640;2023-11-19T00:48:35;1.98;;;1.73;;
57778;SDS011;43608;49.486;9.640;2023-11-19T00:49:06;1.63;;;1.52;;
57778;SDS011;43608;49.486;9.640;2023-11-19T00:49:36;1.90;;;1.70;;
57778;SDS011;43608;49.486;9.640;2023-11-19T00:50:07;1.88;;;1.70;;
57778;SDS011;43608;49.486;9.640;2023-11-19T00:50:39;2.13;;;1.80;;
57778;SDS011;43608;49.486;9.640;2023-11-19T00:51:16;2.03;;;1.70;;
57778;SDS011;43608;49.486;9.640;2023-11-19T00:51:46;2.00;;;1.80;;
57778;SDS011;43608;49.486;9.640;2023-11-19T00:52:17;2.03;;;1.80;;
57778;SDS011;43608;49.486;9.640;2023-11-19T00:52:48;2.00;;;1.80;;
57778;SDS011;43608;49.486;9.640;2023-11-19T00:53:18;1.75;;;1.63;;
57778;SDS011;43608;49.486;9.640;2023-11-19T00:53:49;1.90;;;1.70;;
57778;SDS011;43608;49.486;9.640;2023-11-19T00:54:19;2.08;;;1.83;;
57778;SDS011;43608;49.486;9.640;2023-11-19T00:54:50;2.17;;;1.95;;
57778;SDS011;43608;49.486;9.640;2023-11-19T00:55:20;2.55;;;1.90;;
57778;SDS011;43608;49.486;9.640;2023-11-19T00:55:51;1.80;;;1.70;;
57778;SDS011;43608;49.486;9.640;2023-11-19T00:56:21;1.88;;;1.75;;
57778;SDS011;43608;49.486;9.640;2023-11-19T00:56:52;2.03;;;1.80;;
57778;SDS011;43608;49.486;9.640;2023-11-19T00:57:22;2.03;;;1.83;;
57778;SDS011;43608;49.486;9.640;2023-11-19T00:57:54;2.15;;;1.90;;
57778;SDS011;43608;49.486;9.640;2023-11-19T00:58:26;1.95;;;1.77;;
57778;SDS011;43608;49.486;9.640;2023-11-19T00:58:57;2.08;;;1.83;;
57778;SDS011;43608;49.486;9.640;2023-11-19T00:59:27;2.28;;;1.90;;
57778;SDS011;43608;49.486;9.640;2023-11-19T00:59:59;1.90;;;1.73;;
57778;SDS011;43608;49.486;9.640;2023-11-19T01:00:29;2.03;;;1.80;;
57778;SDS011;43608;49.486;9.640;2023-11-19T01:01:02;2.53;;;1.83;;
57778;SDS011;43608;49.486;9.640;2023-11-19T01:01:32;2.03;;;1.70;;
57778;SDS011;43608;49.486;9.640;2023-11-19T01:02:03;2.20;;;1.80;;
57778;SDS011;43608;49.486;9.640;2023-11-19T01:02:36;1.90;;;1.70;;
57778;SDS011;43608;49.486;9.640;2023-11-19T01:03:06;2.17;;;1.90;;
57778;SDS011;43608;49.486;9.640;2023-11-19T01:03:37;1.80;;;1.70;;
57778;SDS011;43608;49.486;9.640;2023-11-19T01:04:07;1.98;;;1.70;;
57778;SDS011;43608;49.486;9.640;2023-11-19T01:04:38;2.33;;;1.90;;
57778;SDS011;43608;49.486;9.640;2023-11-19T01:05:09;2.83;;;1.88;;
57778;SDS011;43608;49.486;9.640;2023-11-19T01:05:39;1.88;;;1.70;;
57778;SDS011;43608;49.486;9.640;2023-11-19T01:06:10;1.75;;;1.63;;
57778;SDS011;43608;49.486;9.640;2023-11-19T01:06:40;2.28;;;1.80;;
57778;SDS011;43608;49.486;9.640;2023-11-19T01:07:12;1.83;;;1.60;;
57778;SDS011;43608;49.486;9.640;2023-11-19T01:07:42;2.03;;;1.83;;
57778;SDS011;43608;49.486;9.640;2023-11-19T01:08:13;2.05;;;1.80;;
57778;SDS011;43608;49.486;9.640;2023-11-19T01:08:43;2.55;;;1.75;;
57778;SDS011;43608;49.486;9.640;2023-11-19T01:09:14;2.72;;;1.80;;
57778;SDS011;43608;49.486;9.640;2023-11-19T01:09:45;2.03;;;1.83;;
57778;SDS011;43608;49.486;9.640;2023-11-19T01:10:18;1.67;;;1.58;;
57778;SDS011;43608;49.486;9.640;2023-11-19T01:10:48;2.03;;;1.80;;
57778;SDS011;43608;49.486;9.640;2023-11-19T01:11:19;1.80;;;1.70;;
57778;SDS011;43608;49.486;9.640;2023-11-19T01:11:51;2.65;;;2.10;;
57778;SDS011;43608;49.486;9.640;2023-11-19T01:12:21;1.88;;;1.73;;
57778;SDS011;43608;49.486;9.640;2023-11-19T01:12:51;1.70;;;1.60;;
57778;SDS011;43608;49.486;9.640;2023-11-19T01:13:22;2.13;;;1.80;;
57778;SDS011;43608;49.486;9.640;2023-11-19T01:13:52;1.80;;;1.70;;
57778;SDS011;43608;49.486;9.640;2023-11-19T01:14:22;1.80;;;1.70;;
57778;SDS011;43608;49.486;9.640;2023-11-19T01:14:53;2.00;;;1.80;;
57778;SDS011;43608;49.486;9.640;2023-11-19T01:15:23;1.90;;;1.70;;
57778;SDS011;43608;49.486;9.640;2023-11-19T01:15:54;2.30;;;1.77;;
57778;SDS011;43608;49.486;9.640;2023-11-19T01:16:26;1.73;;;1.63;;
57778;SDS011;43608;49.486;9.640;2023-11-19T01:16:56;2.00;;;1.88;;
57778;SDS011;43608;49.486;9.640;2023-11-19T01:17:27;1.88;;;1.70;;
57778;SDS011;43608;49.486;9.640;2023-11-19T01:17:58;2.72;;;1.80;;
57778;SDS011;43608;49.486;9.640;2023-11-19T01:18:28;1.80;;;1.70;;
57778;SDS011;43608;49.486;9.640;2023-11-19T01:18:58;2.00;;;1.80;;
57778;SDS011;43608;49.486;9.640;2023-11-19T01:19:33;2.03;;;1.70;;
57778;SDS011;43608;49.486;9.640;2023-11-19T01:20:04;2.00;;;1.80;;
57778;SDS011;43608;49.486;9.640;2023-11-19T01:20:36;1.65;;;1.55;;
57778;SDS011;43608;49.486;9.640;2023-11-19T01:21:07;1.95;;;1.70;;
57778;SDS011;43608;49.486;9.640;2023-11-19T01:21:37;1.48;;;1.38;;
57778;SDS011;43608;49.486;9.640;2023-11-19T01:22:07;1.90;;;1.63;;
57778;SDS011;43608;49.486;9.640;2023-11-19T01:22:38;1.80;;;1.70;;
57778;SDS011;43608;49.486;9.640;2023-11-19T01:23:08;1.95;;;1.70;;
57778;SDS011;43608;49.486;9.640;2023-11-19T01:23:38;1.70;;;1.60;;
57778;SDS011;43608;49.486;9.640;2023-11-19T01:24:09;1.50;;;1.40;;
57778;SDS011;43608;49.486;9.640;2023-11-19T01:24:39;1.80;;;1.70;;
57778;SDS011;43608;49.486;9.640;2023-11-19T01:25:10;1.50;;;1.40;;
57778;SDS011;43608;49.486;9.640;2023-11-19T01:25:40;1.60;;;1.50;;
57778;SDS011;43608;49.486;9.640;2023-11-19T01:26:11;1.50;;;1.40;;
57778;SDS011;43608;49.486;9.640;2023-11-19T01:26:45;1.52;;;1.42;;
57778;SDS011;43608;49.486;9.640;2023-11-19T01:27:19;1.55;;;1.45;;
57778;SDS011;43608;49.486;9.640;2023-11-19T01:27:49;1.73;;;1.50;;
57778;SDS011;43608;49.486;9.640;2023-11-19T01:28:22;1.52;;;1.42;;
57778;SDS011;43608;49.486;9.640;2023-11-19T01:28:52;1.85;;;1.50;;
57778;SDS011;43608;49.486;9.640;2023-11-19T01:29:23;1.48;;;1.38;;
57778;SDS011;43608;49.486;9.640;2023-11-19T01:29:53;1.50;;;1.40;;
57778;SDS011;43608;49.486;9.640;2023-11-19T01:30:24;1.50;;;1.40;;
57778;SDS011;43608;49.486;9.640;2023-11-19T01:30:55;1.60;;;1.50;;
57778;SDS011;43608;49.486;9.640;2023-11-19T01:31:26;1.50;;;1.40;;
57778;SDS011;43608;49.486;9.640;2023-11-19T01:31:56;1.50;;;1.40;;
57778;SDS011;43608;49.486;9.640;2023-11-19T01:32:27;1.50;;;1.40;;
57778;SDS011;43608;49.486;9.640;2023-11-19T01:32:57;1.40;;;1.30;;
57778;SDS011;43608;49.486;9.640;2023-11-19T01:33:27;1.60;;;1.50;;
57778;SDS011;43608;49.486;9.640;2023-11-19T01:33:58;1.40;;;1.30;;
57778;SDS011;43608;49.486;9.640;2023-11-19T01:34:28;1.60;;;1.50;;
57778;SDS011;43608;49.486;9.640;2023-11-19T01:34:58;1.42;;;1.33;;
57778;SDS011;43608;49.486;9.640;2023-11-19T01:35:29;1.50;;;1.40;;
57778;SDS011;43608;49.486;9.640;2023-11-19T01:35:59;1.40;;;1.30;;
57778;SDS011;43608;49.486;9.640;2023-11-19T01:36:29;1.80;;;1.60;;
57778;SDS011;43608;49.486;9.640;2023-11-19T01:37:00;1.60;;;1.50;;
57778;SDS011;43608;49.486;9.640;2023-11-19T01:37:30;1.70;;;1.60;;
57778;SDS011;43608;49.486;9.640;2023-11-19T01:38:02;1.55;;;1.45;;
57778;SDS011;43608;49.486;9.640;2023-11-19T01:38:32;1.60;;;1.50;;
57778;SDS011;43608;49.486;9.640;2023-11-19T01:39:02;1.52;;;1.42;;
57778;SDS011;43608;49.486;9.640;2023-11-19T01:39:34;1.55;;;1.45;;
57778;SDS011;43608;49.486;9.640;2023-11-19T01:40:05;1.50;;;1.40;;
57778;SDS011;43608;49.486;9.640;2023-11-19T01:40:37;1.38;;;1.30;;
57778;SDS011;43608;49.486;9.640;2023-11-19T01:41:08;1.38;;;1.30;;
57778;SDS011;43608;49.486;9.640;2023-11-19T01:41:38;1.83;;;1.50;;
57778;SDS011;43608;49.486;9.640;2023-11-19T01:42:09;4.03;;;2.25;;
57778;SDS011;43608;49.486;9.640;2023-11-19T01:42:39;4.28;;;2.20;;
57778;SDS011;43608;49.486;9.640;2023-11-19T01:43:10;3.95;;;2.30;;
57778;SDS011;43608;49.486;9.640;2023-11-19T01:43:45;3.53;;;2.17;;
57778;SDS011;43608;49.486;9.640;2023-11-19T01:44:17;3.35;;;2.10;;
57778;SDS011;43608;49.486;9.640;2023-11-19T01:45:00;3.90;;;2.35;;
57778;SDS011;43608;49.486;9.640;2023-11-19T01:45:31;3.72;;;2.13;;
57778;SDS011;43608;49.486;9.640;2023-11-19T01:46:02;3.83;;;2.38;;
57778;SDS011;43608;49.486;9.640;2023-11-19T01:46:35;2.53;;;1.77;;
57778;SDS011;43608;49.486;9.640;2023-11-19T01:47:06;3.25;;;1.95;;
57778;SDS011;43608;49.486;9.640;2023-11-19T01:47:36;2.75;;;1.88;;
57778;SDS011;43608;49.486;9.640;2023-11-19T01:48:07;2.97;;;1.95;;
57778;SDS011;43608;49.486;9.640;2023-11-19T01:48:44;3.45;;;1.90;;
57778;SDS011;43608;49.486;9.640;2023-11-19T01:49:16;2.25;;;1.60;;
57778;SDS011;43608;49.486;9.640;2023-11-19T01:49:48;1.80;;;1.60;;
57778;SDS011;43608;49.486;9.640;2023-11-19T01:50:18;2.45;;;1.80;;
57778;SDS011;43608;49.486;9.640;2023-11-19T01:50:49;1.95;;;1.60;;
57778;SDS011;43608;49.486;9.640;2023-11-19T01:51:22;3.03;;;1.60;;
57778;SDS011;43608;49.486;9.640;2023-11-19T01:51:52;2.40;;;1.67;;
57778;SDS011;43608;49.486;9.640;2023-11-19T01:52:23;1.60;;;1.50;;
57778;SDS011;43608;49.486;9.640;2023-11-19T01:52:54;1.85;;;1.50;;
57778;SDS011;43608;49.486;9.640;2023-11-19T01:53:27;1.60;;;1.50;;
57778;SDS011;43608;49.486;9.640;2023-11-19T01:53:59;1.70;;;1.60;;
57778;SDS011;43608;49.486;9.640;2023-11-19T01:54:29;1.52;;;1.42;;
57778;SDS011;43608;49.486;9.640;2023-11-19T01:55:00;1.75;;;1.50;;
57778;SDS011;43608;49.486;9.640;2023-11-19T01:55:31;1.52;;;1.42;;
57778;SDS011;43608;49.486;9.640;2023-11-19T01:56:01;1.63;;;1.52;;
57778;SDS011;43608;49.486;9.640;2023-11-19T01:56:33;1.85;;;1.50;;
57778;SDS011;43608;49.486;9.640;2023-11-19T01:57:04;1.60;;;1.50;;
57778;SDS011;43608;49.486;9.640;2023-11-19T01:57:34;1.50;;;1.40;;
57778;SDS011;43608;49.486;9.640;2023-11-19T01:58:07;1.33;;;1.30;;
57778;SDS011;43608;49.486;9.640;2023-11-19T01:58:38;1.40;;;1.30;;
57778;SDS011;43608;49.486;9.640;2023-11-19T01:59:09;1.50;;;1.40;;
57778;SDS011;43608;49.486;9.640;2023-11-19T01:59:43;1.45;;;1.35;;
57778;SDS011;43608;49.486;9.640;2023-11-19T02:00:14;1.40;;;1.30;;
57778;SDS011;43608;49.486;9.640;2023-11-19T02:00:46;1.50;;;1.40;;
57778;SDS011;43608;49.486;9.640;2023-11-19T02:01:17;1.45;;;1.35;;
57778;SDS011;43608;49.486;9.640;2023-11-19T02:01:48;1.30;;;1.27;;
57778;SDS011;43608;49.486;9.640;2023-11-19T02:02:18;1.10;;;1.10;;
57778;SDS011;43608;49.486;9.640;2023-11-19T02:02:52;1.25;;;1.25;;
57778;SDS011;43608;49.486;9.640;2023-11-19T02:03:22;1.35;;;1.30;;
57778;SDS011;43608;49.486;9.640;2023-11-19T02:03:55;1.20;;;1.20;;
57778;SDS011;43608;49.486;9.640;2023-11-19T02:04:28;1.20;;;1.20;;
57778;SDS011;43608;49.486;9.640;2023-11-19T02:04:58;1.25;;;1.25;;
57778;SDS011;43608;49.486;9.640;2023-11-19T02:05:30;1.30;;;1.20;;
57778;SDS011;43608;49.486;9.640;2023-11-19T02:06:02;1.42;;;1.33;;
57778;SDS011;43608;49.486;9.640;2023-11-19T02:06:33;1.30;;;1.25;;
57778;SDS011;43608;49.486;9.640;2023-11-19T02:07:04;1.20;;;1.20;;
57778;SDS011;43608;49.486;9.640;2023-11-19T02:07:35;1.17;;;1.17;;
57778;SDS011;43608;49.486;9.640;2023-11-19T02:08:05;1.20;;;1.20;;
57778;SDS011;43608;49.486;9.640;2023-11-19T02:08:36;1.17;;;1.17;;
57778;SDS011;43608;49.486;9.640;2023-11-19T02:09:08;1.38;;;1.30;;
57778;SDS011;43608;49.486;9.640;2023-11-19T02:09:38;1.25;;;1.23;;
57778;SDS011;43608;49.486;9.640;2023-11-19T02:10:08;1.10;;;1.10;;
57778;SDS011;43608;49.486;9.640;2023-11-19T02:10:44;1.35;;;1.25;;
57778;SDS011;43608;49.486;9.640;2023-11-19T02:11:14;1.38;;;1.27;;
57778;SDS011;43608;49.486;9.640;2023-11-19T02:11:45;1.10;;;1.10;;
57778;SDS011;43608;49.486;9.640;2023-11-19T02:12:19;1.40;;;1.30;;
57778;SDS011;43608;49.486;9.640;2023-11-19T02:12:50;1.20;;;1.20;;
57778;SDS011;43608;49.486;9.640;2023-11-19T02:13:21;0.90;;;0.90;;
57778;SDS011;43608;49.486;9.640;2023-11-19T02:13:51;1.10;;;1.10;;
57778;SDS011;43608;49.486;9.640;2023-11-19T02:14:23;1.05;;;1.05;;
57778;SDS011;43608;49.486;9.640;2023-11-19T02:14:55;1.10;;;1.10;;
57778;SDS011;43608;49.486;9.640;2023-11-19T02:15:26;1.27;;;1.20;;
57778;SDS011;43608;49.486;9.640;2023-11-19T02:15:56;1.10;;;1.10;;
57778;SDS011;43608;49.486;9.640;2023-11-19T02:16:26;1.10;;;1.10;;
57778;SDS011;43608;49.486;9.640;2023-11-19T02:16:58;0.93;;;0.93;;
57778;SDS011;43608;49.486;9.640;2023-11-19T02:17:31;0.95;;;0.95;;
57778;SDS011;43608;49.486;9.640;2023-11-19T02:18:17;1.10;;;1.10;;
57778;SDS011;43608;49.486;9.640;2023-11-19T02:18:57;1.17;;;1.08;;
57778;SDS011;43608;49.486;9.640;2023-11-19T02:19:27;1.00;;;1.00;;
57778;SDS011;43608;49.486;9.640;2023-11-19T02:19:58;1.10;;;1.10;;
57778;SDS011;43608;49.486;9.640;2023-11-19T02:20:29;0.95;;;0.95;;
57778;SDS011;43608;49.486;9.640;2023-11-19T02:20:59;1.33;;;1.23;;
57778;SDS011;43608;49.486;9.640;2023-11-19T02:21:30;1.30;;;1.30;;
57778;SDS011;43608;49.486;9.640;2023-11-19T02:22:00;1.20;;;1.10;;
57778;SDS011;43608;49.486;9.640;2023-11-19T02:22:31;0.93;;;0.93;;
57778;SDS011;43608;49.486;9.640;2023-11-19T02:23:01;1.30;;;1.20;;
57778;SDS011;43608;49.486;9.640;2023-11-19T02:23:31;1.38;;;1.27;;
57778;SDS011;43608;49.486;9.640;2023-11-19T02:24:06;1.40;;;1.30;;
57778;SDS011;43608;49.486;9.640;2023-11-19T02:24:38;1.30;;;1.20;;
57778;SDS011;43608;49.486;9.640;2023-11-19T02:25:11;1.10;;;1.10;;
57778;SDS011;43608;49.486;9.640;2023-11-19T02:26:36;1.05;;;1.05;;
57778;SDS011;43608;49.486;9.640;2023-11-19T02:27:10;1.17;;;1.10;;
57778;SDS011;43608;49.486;9.640;2023-11-19T02:27:56;1.05;;;1.05;;
57778;SDS011;43608;49.486;9.640;2023-11-19T02:28:29;1.27;;;1.23;;
57778;SDS011;43608;49.486;9.640;2023-11-19T02:29:00;1.38;;;1.27;;
57778;SDS011;43608;49.486;9.640;2023-11-19T02:29:30;1.10;;;1.10;;
57778;SDS011;43608;49.486;9.640;2023-11-19T02:30:00;0.80;;;0.80;;
57778;SDS011;43608;49.486;9.640;2023-11-19T02:30:31;1.40;;;1.30;;
57778;SDS011;43608;49.486;9.640;2023-11-19T02:31:02;1.50;;;1.40;;
57778;SDS011;43608;49.486;9.640;2023-11-19T02:31:34;1.20;;;1.20;;
57778;SDS011;43608;49.486;9.640;2023-11-19T02:32:05;1.40;;;1.30;;
57778;SDS011;43608;49.486;9.640;2023-11-19T02:32:40;1.25;;;1.20;;
57778;SDS011;43608;49.486;9.640;2023-11-19T02:33:11;1.40;;;1.30;;
57778;SDS011;43608;49.486;9.640;2023-11-19T02:33:42;1.40;;;1.30;;
57778;SDS011;43608;49.486;9.640;2023-11-19T02:34:13;1.08;;;1.08;;
57778;SDS011;43608;49.486;9.640;2023-11-19T02:34:43;1.20;;;1.20;;
57778;SDS011;43608;49.486;9.640;2023-11-19T02:35:14;1.17;;;1.17;;
57778;SDS011;43608;49.486;9.640;2023-11-19T02:35:44;1.20;;;1.20;;
57778;SDS011;43608;49.486;9.640;2023-11-19T02:36:14;1.15;;;1.15;;
57778;SDS011;43608;49.486;9.640;2023-11-19T02:36:45;1.23;;;1.20;;
57778;SDS011;43608;49.486;9.640;2023-11-19T02:37:17;1.20;;;1.20;;
57778;SDS011;43608;49.486;9.640;2023-11-19T02:37:49;1.00;;;1.00;;
57778;SDS011;43608;49.486;9.640;2023-11-19T02:38:19;1.25;;;1.15;;
57778;SDS011;43608;49.486;9.640;2023-11-19T02:38:51;1.23;;;1.23;;
57778;SDS011;43608;49.486;9.640;2023-11-19T02:39:22;1.02;;;1.02;;
57778;SDS011;43608;49.486;9.640;2023-11-19T02:39:52;1.10;;;1.10;;
57778;SDS011;43608;49.486;9.640;2023-11-19T02:40:22;1.30;;;1.25;;
57778;SDS011;43608;49.486;9.640;2023-11-19T02:40:56;1.00;;;1.00;;
57778;SDS011;43608;49.486;9.640;2023-11-19T02:41:27;0.98;;;0.98;;
57778;SDS011;43608;49.486;9.640;2023-11-19T02:41:57;1.42;;;1.33;;
57778;SDS011;43608;49.486;9.640;2023-11-19T02:42:27;1.20;;;1.10;;
57778;SDS011;43608;49.486;9.640;2023-11-19T02:42:58;1.50;;;1.40;;
57778;SDS011;43608;49.486;9.640;2023-11-19T02:43:28;1.10;;;1.10;;
57778;SDS011;43608;49.486;9.640;2023-11-19T02:44:01;1.17;;;1.13;;
57778;SDS011;43608;49.486;9.640;2023-11-19T02:44:31;1.17;;;1.17;;
57778;SDS011;43608;49.486;9.640;2023-11-19T02:45:01;1.17;;;1.13;;
57778;SDS011;43608;49.486;9.640;2023-11-19T02:45:36;1.42;;;1.33;;
57778;SDS011;43608;49.486;9.640;2023-11-19T02:46:07;1.20;;;1.20;;
57778;SDS011;43608;49.486;9.640;2023-11-19T02:46:37;1.20;;;1.10;;
57778;SDS011;43608;49.486;9.640;2023-11-19T02:47:07;1.13;;;1.13;;
57778;SDS011;43608;49.486;9.640;2023-11-19T02:47:38;1.00;;;1.00;;
57778;SDS011;43608;49.486;9.640;2023-11-19T02:48:08;1.10;;;1.10;;
57778;SDS011;43608;49.486;9.640;2023-11-19T02:48:39;1.20;;;1.20;;
57778;SDS011;43608;49.486;9.640;2023-11-19T02:49:10;1.20;;;1.20;;
57778;SDS011;43608;49.486;9.640;2023-11-19T02:49:40;1.05;;;1.05;;
57778;SDS011;43608;49.486;9.640;2023-11-19T02:50:11;1.30;;;1.25;;
57778;SDS011;43608;49.486;9.640;2023-11-19T02:50:44;1.10;;;1.10;;
57778;SDS011;43608;49.486;9.640;2023-11-19T02:51:15;1.23;;;1.20;;
57778;SDS011;43608;49.486;9.640;2023-11-19T02:51:46;1.13;;;1.13;;
57778;SDS011;43608;49.486;9.640;2023-11-19T02:52:16;1.27;;;1.17;;
57778;SDS011;43608;49.486;9.640;2023-11-19T02:52:46;1.10;;;1.10;;
57778;SDS011;43608;49.486;9.640;2023-11-19T02:53:18;1.52;;;1.42;;
57778;SDS011;43608;49.486;9.640;2023-11-19T02:53:51;1.40;;;1.30;;
57778;SDS011;43608;49.486;9.640;2023-11-19T02:54:22;1.38;;;1.30;;
57778;SDS011;43608;49.486;9.640;2023-11-19T02:54:57;1.45;;;1.35;;
57778;SDS011;43608;49.486;9.640;2023-11-19T02:55:27;1.27;;;1.25;;
57778;SDS011;43608;49.486;9.640;2023-11-19T02:56:00;1.10;;;1.10;;
57778;SDS011;43608;49.486;9.640;2023-11-19T02:56:36;1.25;;;1.20;;
57778;SDS011;43608;49.486;9.640;2023-11-19T02:57:08;1.20;;;1.20;;
57778;SDS011;43608;49.486;9.640;2023-11-19T02:57:40;1.30;;;1.20;;
57778;SDS011;43608;49.486;9.640;2023-11-19T02:58:18;1.40;;;1.30;;
57778;SDS011;43608;49.486;9.640;2023-11-19T02:58:53;1.38;;;1.27;;
57778;SDS011;43608;49.486;9.640;2023-11-19T02:59:24;1.48;;;1.38;;
57778;SDS011;43608;49.486;9.640;2023-11-19T02:59:57;1.60;;;1.50;;
57778;SDS011;43608;49.486;9.640;2023-11-19T03:00:28;1.40;;;1.30;;
57778;SDS011;43608;49.486;9.640;2023-11-19T03:01:24;1.10;;;1.10;;
57778;SDS011;43608;49.486;9.640;2023-11-19T03:01:59;1.25;;;1.20;;
57778;SDS011;43608;49.486;9.640;2023-11-19T03:02:30;1.50;;;1.40;;
57778;SDS011;43608;49.486;9.640;2023-11-19T03:03:03;1.50;;;1.40;;
57778;SDS011;43608;49.486;9.640;2023-11-19T03:03:47;1.30;;;1.20;;
57778;SDS011;43608;49.486;9.640;2023-11-19T03:04:23;1.63;;;1.50;;
57778;SDS011;43608;49.486;9.640;2023-11-19T03:04:54;1.50;;;1.40;;
57778;SDS011;43608;49.486;9.640;2023-11-19T03:05:25;1.50;;;1.40;;
57778;SDS011;43608;49.486;9.640;2023-11-19T03:06:00;1.60;;;1.50;;
57778;SDS011;43608;49.486;9.640;2023-11-19T03:06:34;1.60;;;1.50;;
57778;SDS011;43608;49.486;9.640;2023-11-19T03:07:05;1.60;;;1.50;;
57778;SDS011;43608;49.486;9.640;2023-11-19T03:07:37;1.73;;;1.52;;
57778;SDS011;43608;49.486;9.640;2023-11-19T03:08:07;1.60;;;1.50;;
57778;SDS011;43608;49.486;9.640;2023-11-19T03:08:38;1.92;;;1.70;;
57778;SDS011;43608;49.486;9.640;2023-11-19T03:09:08;1.70;;;1.60;;
57778;SDS011;43608;49.486;9.640;2023-11-19T03:09:40;1.65;;;1.55;;
57778;SDS011;43608;49.486;9.640;2023-11-19T03:10:11;1.85;;;1.55;;